Time;durP1;ratioP1;P1;durP2;ratioP2;P2;SDS_P1;SDS_P2;PMS_P1;PMS_P2;Temp;Humidity;BMP_temperature;BMP_pressure;BME280_temperature;BME280_humidity;BME280_pressure;Samples;Min_cycle;Max_cycle;Signal;HPM_P1;HPM_P2
2021/10/28 00:14:32;;;;;;;12.18;5.38;;;12.20;98.70;;;;;;5030868;28;20045;-72
2021/10/28 00:16:59;;;;;;;8.82;5.80;;;12.10;98.70;;;;;;5030433;28;20056;-72
2021/10/28 00:19:27;;;;;;;8.55;5.60;;;12.10;98.80;;;;;;5031603;28;20017;-72
2021/10/28 00:21:53;;;;;;;9.60;6.05;;;12.20;98.90;;;;;;5030394;28;20222;-72
2021/10/28 00:24:19;;;;;;;14.57;5.45;;;12.20;98.90;;;;;;5032579;28;20463;-71
2021/10/28 00:26:47;;;;;;;12.40;5.50;;;12.20;98.80;;;;;;5034043;28;20478;-71
2021/10/28 00:29:15;;;;;;;11.13;5.60;;;12.10;98.90;;;;;;5034287;28;20029;-71
2021/10/28 00:31:41;;;;;;;;;;;12.00;98.90;;;;;;5034343;28;20061;-69
2021/10/28 00:34:08;;;;;;;9.52;5.63;;;12.00;98.90;;;;;;5034713;28;19901;-71
2021/10/28 00:36:35;;;;;;;10.80;6.25;;;12.00;98.80;;;;;;5034133;28;20033;-71
2021/10/28 00:39:02;;;;;;;11.73;6.13;;;12.00;99.00;;;;;;5033692;28;20076;-71
2021/10/28 00:41:28;;;;;;;11.60;6.20;;;12.00;99.10;;;;;;5033703;28;20061;-71
2021/10/28 00:43:56;;;;;;;11.63;6.03;;;12.00;99.00;;;;;;5033868;28;20061;-71
2021/10/28 00:46:25;;;;;;;13.48;6.10;;;12.00;99.10;;;;;;5034261;28;20214;-71
2021/10/28 00:48:50;;;;;;;14.75;6.82;;;12.00;99.30;;;;;;5033607;28;20033;-71
2021/10/28 00:51:22;;;;;;;13.23;6.50;;;12.00;99.20;;;;;;5032745;28;20029;-71
2021/10/28 00:53:49;;;;;;;10.00;6.43;;;12.00;99.40;;;;;;5033721;28;20056;-71
2021/10/28 00:56:16;;;;;;;13.38;6.82;;;12.00;99.30;;;;;;5033717;28;20095;-72
2021/10/28 00:58:41;;;;;;;11.27;6.63;;;12.00;99.40;;;;;;5033395;28;20025;-71
2021/10/28 01:01:08;;;;;;;13.23;6.60;;;12.00;99.40;;;;;;5034288;28;20014;-71
2021/10/28 01:03:35;;;;;;;13.80;6.70;;;12.00;99.30;;;;;;5033450;28;20040;-72
2021/10/28 01:06:03;;;;;;;11.57;6.35;;;12.10;99.20;;;;;;5032287;28;20037;-71
2021/10/28 01:08:29;;;;;;;;;;;12.10;99.40;;;;;;5033990;28;20029;-71
2021/10/28 01:10:56;;;;;;;13.18;6.13;;;12.00;99.30;;;;;;5031925;28;19909;-71
2021/10/28 01:13:23;;;;;;;12.93;6.85;;;12.00;99.40;;;;;;5033681;28;20420;-71
2021/10/28 01:15:52;;;;;;;11.32;7.05;;;12.00;99.40;;;;;;5033083;28;20427;-71
2021/10/28 01:18:17;;;;;;;13.93;7.13;;;12.00;99.40;;;;;;5032131;28;20064;-71
2021/10/28 01:20:47;;;;;;;15.75;7.90;;;11.90;99.50;;;;;;5033013;28;20116;-71
2021/10/28 01:23:15;;;;;;;11.80;6.70;;;12.00;99.80;;;;;;5033450;28;20033;-70
2021/10/28 01:25:48;;;;;;;12.98;6.82;;;12.00;99.50;;;;;;5032058;28;20533;-71
2021/10/28 01:28:16;;;;;;;11.63;7.75;;;12.00;99.50;;;;;;5033805;28;20025;-71
2021/10/28 01:30:53;;;;;;;16.65;7.45;;;12.00;99.50;;;;;;5031727;28;20044;-71
2021/10/28 01:33:20;;;;;;;13.45;7.30;;;12.00;99.50;;;;;;5033250;28;20025;-72
2021/10/28 01:35:46;;;;;;;12.48;7.50;;;12.00;99.50;;;;;;5040294;28;20030;-72
2021/10/28 01:38:14;;;;;;;11.65;6.97;;;12.00;99.30;;;;;;5052878;28;20128;-73
2021/10/28 01:40:41;;;;;;;11.77;7.32;;;12.00;99.30;;;;;;5052666;28;20055;-73
2021/10/28 01:43:07;;;;;;;13.07;7.47;;;12.00;99.40;;;;;;5053147;28;20451;-72
2021/10/28 01:45:33;;;;;;;21.45;7.95;;;12.00;99.40;;;;;;5052709;28;20439;-72
2021/10/28 01:48:02;;;;;;;14.48;7.65;;;12.00;99.30;;;;;;5052504;28;20036;-71
2021/10/28 01:50:28;;;;;;;17.13;8.50;;;12.00;99.40;;;;;;5052758;28;20048;-71
2021/10/28 01:52:54;;;;;;;15.88;7.65;;;11.90;99.40;;;;;;5052102;28;20044;-71
2021/10/28 01:55:20;;;;;;;13.80;7.22;;;12.00;99.60;;;;;;5053005;28;20025;-71
2021/10/28 01:57:46;;;;;;;11.05;6.97;;;12.00;99.40;;;;;;5052292;28;20108;-71
2021/10/28 02:00:15;;;;;;;14.43;8.10;;;11.90;99.40;;;;;;5052208;28;20029;-71
2021/10/28 02:02:42;;;;;;;12.90;8.32;;;11.90;99.60;;;;;;5051904;28;20056;-70
2021/10/28 02:05:09;;;;;;;11.52;7.10;;;12.00;99.60;;;;;;5052003;28;20044;-72
2021/10/28 02:07:35;;;;;;;15.05;8.00;;;11.80;99.50;;;;;;5052219;28;20085;-71
2021/10/28 02:10:01;;;;;;;17.80;8.30;;;11.80;99.50;;;;;;5052412;28;20090;-71
2021/10/28 02:12:26;;;;;;;13.10;8.40;;;11.80;99.50;;;;;;5052093;28;20437;-71
2021/10/28 02:14:52;;;;;;;13.45;7.50;;;11.80;99.60;;;;;;5051971;28;20025;-71
2021/10/28 02:17:17;;;;;;;25.25;8.50;;;11.80;99.60;;;;;;5052137;28;20427;-71
2021/10/28 02:19:43;;;;;;;12.85;7.45;;;11.80;99.50;;;;;;5050833;28;20021;-71
2021/10/28 02:22:09;;;;;;;14.00;8.10;;;11.80;99.50;;;;;;5051332;28;20420;-71
2021/10/28 02:24:34;;;;;;;12.77;7.45;;;11.80;99.40;;;;;;5051932;28;20029;-71
2021/10/28 02:27:00;;;;;;;11.60;7.78;;;11.80;99.40;;;;;;5051802;28;20044;-71
2021/10/28 02:29:27;;;;;;;14.57;7.72;;;11.80;99.40;;;;;;5051926;28;20029;-71
2021/10/28 02:31:53;;;;;;;16.15;8.52;;;11.80;99.40;;;;;;5051638;28;20366;-71
2021/10/28 02:34:18;;;;;;;19.05;8.98;;;11.80;99.40;;;;;;5051144;28;20021;-72
2021/10/28 02:36:44;;;;;;;14.73;7.78;;;11.70;99.50;;;;;;5051746;28;20029;-72
2021/10/28 02:39:09;;;;;;;17.23;8.43;;;11.70;99.50;;;;;;5050450;28;20428;-71
2021/10/28 02:41:37;;;;;;;14.63;9.40;;;11.70;99.60;;;;;;5051843;28;20325;-71
2021/10/28 02:44:03;;;;;;;17.57;9.33;;;11.70;99.50;;;;;;5051538;28;20025;-71
2021/10/28 02:46:29;;;;;;;17.50;8.38;;;11.70;99.50;;;;;;5050850;28;20108;-70
2021/10/28 02:48:55;;;;;;;15.88;9.07;;;11.70;99.40;;;;;;5051866;28;20031;-71
2021/10/28 02:51:20;;;;;;;15.73;8.25;;;11.60;99.50;;;;;;5051551;28;20374;-71
2021/10/28 02:53:46;;;;;;;15.38;8.70;;;11.60;99.50;;;;;;5051302;28;20128;-71
2021/10/28 02:56:12;;;;;;;15.32;8.10;;;11.60;99.50;;;;;;5051121;28;20059;-70
2021/10/28 02:58:38;;;;;;;15.88;8.95;;;11.60;99.60;;;;;;5051431;28;20057;-71
2021/10/28 03:01:04;;;;;;;21.83;9.73;;;11.60;99.70;;;;;;5051561;28;20013;-70
2021/10/28 03:03:30;;;;;;;13.90;8.63;;;11.60;99.90;;;;;;5051481;28;20029;-71
2021/10/28 03:05:56;;;;;;;23.08;9.65;;;11.50;99.50;;;;;;5051052;28;20039;-71
2021/10/28 03:08:21;;;;;;;15.60;9.07;;;11.60;99.60;;;;;;5051246;28;20059;-72
2021/10/28 03:10:47;;;;;;;14.63;9.10;;;11.50;99.60;;;;;;5051041;28;20426;-71
2021/10/28 03:13:17;;;;;;;16.77;9.43;;;11.50;99.80;;;;;;5051177;28;20094;-72
2021/10/28 03:15:43;;;;;;;17.98;10.27;;;11.50;99.80;;;;;;5051159;28;20063;-71
2021/10/28 03:19:18;;;;;;;18.50;10.40;;;11.50;99.80;;;;;;5051138;28;20063;-71
2021/10/28 03:26:34;;;;;;;25.50;10.48;;;11.50;99.90;;;;;;5050798;28;20177;-71
2021/10/28 03:28:59;;;;;;;19.17;9.90;;;11.50;99.90;;;;;;5050794;28;20443;-71
2021/10/28 03:31:25;;;;;;;16.77;10.02;;;11.50;99.90;;;;;;5051385;28;20059;-71
2021/10/28 03:33:51;;;;;;;16.65;10.23;;;11.50;99.90;;;;;;5050893;28;20028;-71
2021/10/28 03:36:36;;;;;;;19.05;10.15;;;11.50;99.90;;;;;;5050658;28;20064;-72
2021/10/28 03:39:30;;;;;;;18.20;10.00;;;11.50;99.90;;;;;;5049709;28;20055;-71
2021/10/28 03:47:58;;;;;;;19.88;10.20;;;11.40;99.90;;;;;;5050536;28;20040;-70
2021/10/28 03:50:51;;;;;;;18.23;9.50;;;11.50;99.90;;;;;;5050598;28;20055;-71
2021/10/28 03:58:46;;;;;;;18.17;10.55;;;11.50;99.90;;;;;;5053353;28;20064;-71
2021/10/28 04:07:00;;;;;;;15.95;10.27;;;11.50;99.90;;;;;;5043006;28;20112;-70
2021/10/28 04:31:10;;;;;;;14.43;10.35;;;11.40;99.90;;;;;;5053969;28;20794;-71
2021/10/28 04:33:41;;;;;;;19.63;11.05;;;11.40;99.90;;;;;;5053873;28;20124;-71
2021/10/28 04:36:07;;;;;;;16.73;10.93;;;11.40;99.90;;;;;;5052509;28;20032;-71
2021/10/28 04:38:33;;;;;;;15.82;10.43;;;11.40;99.90;;;;;;5053602;28;20036;-72
2021/10/28 04:40:59;;;;;;;19.58;11.88;;;11.40;99.90;;;;;;5053698;28;20414;-71
2021/10/28 04:43:24;;;;;;;18.77;10.10;;;11.40;99.90;;;;;;5052811;28;20151;-71
2021/10/28 04:45:50;;;;;;;17.08;10.07;;;11.40;99.90;;;;;;5054035;28;20060;-71
2021/10/28 04:48:16;;;;;;;16.65;10.10;;;11.40;99.90;;;;;;5053369;28;20132;-72
2021/10/28 04:50:42;;;;;;;20.25;10.88;;;11.40;99.90;;;;;;5053446;28;20036;-71
2021/10/28 04:53:08;;;;;;;17.25;10.43;;;11.40;99.90;;;;;;5053226;28;20040;-71
2021/10/28 04:55:34;;;;;;;22.42;10.70;;;11.40;99.90;;;;;;5053395;28;20029;-71
2021/10/28 04:57:59;;;;;;;17.98;10.18;;;11.40;99.90;;;;;;5053765;28;20431;-72
2021/10/28 05:00:26;;;;;;;16.60;10.75;;;11.40;99.90;;;;;;5053258;28;20059;-73
2021/10/28 05:02:51;;;;;;;16.33;10.18;;;11.40;99.90;;;;;;5053621;28;20064;-71
2021/10/28 05:05:17;;;;;;;18.15;10.65;;;11.40;99.90;;;;;;5053248;28;20056;-72
2021/10/28 05:07:42;;;;;;;19.20;10.80;;;11.30;99.90;;;;;;5053147;28;20039;-72
2021/10/28 05:10:08;;;;;;;18.30;10.32;;;11.30;99.90;;;;;;5052700;28;20025;-71
2021/10/28 05:12:34;;;;;;;20.27;10.48;;;11.40;99.90;;;;;;5052804;28;20049;-72
2021/10/28 05:14:59;;;;;;;14.48;8.73;;;11.40;99.90;;;;;;5052245;28;20029;-72
2021/10/28 05:17:25;;;;;;;16.83;9.98;;;11.50;99.90;;;;;;5051412;28;20103;-72
2021/10/28 05:19:50;;;;;;;22.45;10.70;;;11.40;99.90;;;;;;5052904;28;20040;-72
2021/10/28 05:22:18;;;;;;;17.67;10.82;;;11.50;99.90;;;;;;5052954;28;20017;-70
2021/10/28 05:24:44;;;;;;;16.05;10.30;;;11.30;99.90;;;;;;5052525;28;20052;-71
2021/10/28 05:27:10;;;;;;;16.63;10.38;;;11.30;99.90;;;;;;5052599;28;20131;-71
2021/10/28 05:29:35;;;;;;;15.65;10.02;;;11.30;99.90;;;;;;5052542;28;20040;-72
2021/10/28 05:32:01;;;;;;;17.80;10.13;;;11.40;99.90;;;;;;5052649;28;20025;-72
2021/10/28 05:34:26;;;;;;;16.75;10.30;;;11.30;99.90;;;;;;5053039;28;20020;-71
2021/10/28 05:36:52;;;;;;;20.27;10.70;;;11.40;99.90;;;;;;5052399;28;20438;-72
2021/10/28 05:39:18;;;;;;;19.88;10.77;;;11.30;99.90;;;;;;5051360;28;20033;-71
2021/10/28 05:41:44;;;;;;;16.13;10.70;;;11.30;99.90;;;;;;5052249;28;20029;-72
2021/10/28 05:44:09;;;;;;;18.45;10.65;;;11.40;99.90;;;;;;5052334;28;20057;-75
2021/10/28 05:46:35;;;;;;;16.58;10.45;;;11.40;99.90;;;;;;5052043;28;20037;-72
2021/10/28 05:49:01;;;;;;;20.38;10.82;;;11.30;99.90;;;;;;5052572;28;20091;-71
2021/10/28 05:51:27;;;;;;;21.20;10.77;;;11.40;99.90;;;;;;5052304;28;20029;-70
2021/10/28 05:53:53;;;;;;;14.10;9.63;;;11.30;99.90;;;;;;5033874;28;20041;-70
2021/10/28 05:56:19;;;;;;;15.13;10.18;;;11.30;99.90;;;;;;5031938;28;20119;-69
2021/10/28 05:58:44;;;;;;;23.90;13.30;;;11.30;99.90;;;;;;5030763;28;20051;-69
2021/10/28 06:01:10;;;;;;;24.75;12.85;;;11.30;99.90;;;;;;5032384;28;20044;-69
2021/10/28 06:03:37;;;;;;;16.42;11.23;;;11.20;99.90;;;;;;5031977;28;20029;-69
2021/10/28 06:06:04;;;;;;;23.42;12.13;;;11.20;99.90;;;;;;5031950;28;20033;-69
2021/10/28 06:08:30;;;;;;;23.00;12.63;;;11.20;99.90;;;;;;5032030;28;20411;-69
2021/10/28 06:10:55;;;;;;;23.65;11.57;;;11.30;99.90;;;;;;5032118;28;20029;-70
2021/10/28 06:13:22;;;;;;;16.60;10.02;;;11.20;99.90;;;;;;5031975;28;20662;-70
2021/10/28 06:15:48;;;;;;;15.23;10.70;;;11.20;99.90;;;;;;5031788;28;20026;-69
2021/10/28 06:20:44;;;;;;;18.00;10.20;;;11.10;99.90;;;;;;5031669;28;20132;-70
2021/10/28 06:23:09;;;;;;;16.10;10.05;;;11.10;99.90;;;;;;5031831;28;20022;-69
2021/10/28 06:25:35;;;;;;;16.02;9.63;;;11.20;99.90;;;;;;5031703;28;20367;-70
2021/10/28 06:28:02;;;;;;;19.38;11.98;;;11.10;99.90;;;;;;5032065;28;20025;-70
2021/10/28 06:30:30;;;;;;;21.70;11.43;;;11.10;99.90;;;;;;5031564;28;20033;-70
2021/10/28 06:33:03;;;;;;;18.00;10.80;;;11.10;99.90;;;;;;5031510;28;20125;-69
2021/10/28 06:35:32;;;;;;;18.90;10.23;;;11.00;99.90;;;;;;5031090;28;20117;-69
2021/10/28 06:37:57;;;;;;;13.70;9.75;;;11.10;99.90;;;;;;5031067;28;20109;-68
2021/10/28 06:40:25;;;;;;;16.13;10.27;;;11.10;99.90;;;;;;5031432;28;20093;-69
2021/10/28 06:42:51;;;;;;;14.25;9.88;;;11.10;99.90;;;;;;5030087;28;20457;-69
2021/10/28 06:45:18;;;;;;;15.98;9.73;;;11.10;99.90;;;;;;5029988;28;20411;-69
2021/10/28 06:47:44;;;;;;;17.13;10.15;;;11.10;99.90;;;;;;5030860;28;20041;-68
2021/10/28 06:50:12;;;;;;;13.38;9.52;;;11.10;99.90;;;;;;5031036;28;20029;-68
2021/10/28 06:55:14;;;;;;;17.05;10.35;;;11.10;99.90;;;;;;5031299;28;20018;-68
2021/10/28 07:03:16;;;;;;;16.30;9.73;;;11.10;99.90;;;;;;5030750;28;20064;-68
2021/10/28 07:05:41;;;;;;;14.65;9.90;;;11.10;99.90;;;;;;5030661;28;20025;-68
2021/10/28 07:08:07;;;;;;;17.08;10.40;;;11.10;99.90;;;;;;5030406;28;20033;-69
2021/10/28 07:10:34;;;;;;;16.45;9.52;;;11.10;99.90;;;;;;5030560;28;20025;-69
2021/10/28 07:15:35;;;;;;;17.38;11.00;;;11.10;99.90;;;;;;5030590;28;20037;-69
2021/10/28 07:18:17;;;;;;;14.85;10.10;;;11.10;99.90;;;;;;5030680;28;20121;-68
2021/10/28 07:34:07;;;;;;;19.30;9.68;;;11.40;99.90;;;;;;5036317;28;20125;-68
2021/10/28 07:38:21;;;;;;;16.20;9.73;;;11.40;99.90;;;;;;5037351;28;20037;-69
2021/10/28 07:58:49;;;;;;;13.88;9.02;;;11.70;99.90;;;;;;5036768;28;20072;-69
2021/10/28 08:15:13;;;;;;;15.13;8.43;;;12.20;99.90;;;;;;5036583;28;20036;-69
2021/10/28 08:18:28;;;;;;;13.82;8.07;;;12.30;99.70;;;;;;5036897;28;20032;-70
2021/10/28 08:20:45;;;;;;;17.55;9.50;;;12.40;99.60;;;;;;5030854;28;20029;-68
2021/10/28 08:23:16;;;;;;;20.40;10.30;;;12.40;99.30;;;;;;5037129;28;20049;-69
2021/10/28 08:28:49;;;;;;;19.63;9.57;;;12.80;99.20;;;;;;5036889;28;20183;-68
2021/10/28 08:31:20;;;;;;;15.20;9.70;;;13.00;98.90;;;;;;5036230;28;20037;-71
2021/10/28 08:33:47;;;;;;;15.15;8.60;;;13.10;98.50;;;;;;5035493;28;20041;-70
2021/10/28 08:36:20;;;;;;;17.05;8.30;;;13.10;98.40;;;;;;5036569;28;20392;-71
2021/10/28 08:38:45;;;;;;;13.65;7.28;;;13.20;98.20;;;;;;5036244;28;20362;-70
2021/10/28 08:41:12;;;;;;;12.60;7.72;;;13.20;98.20;;;;;;5036493;28;20037;-68
2021/10/28 08:43:44;;;;;;;13.63;7.63;;;13.40;98.20;;;;;;5034284;28;20028;-69
2021/10/28 08:46:11;;;;;;;14.93;8.43;;;13.40;97.90;;;;;;5033153;28;20452;-71
2021/10/28 08:48:40;;;;;;;13.90;7.77;;;13.40;97.70;;;;;;5032931;28;20034;-71
2021/10/28 08:51:11;;;;;;;12.30;7.57;;;13.40;97.60;;;;;;5033195;28;20045;-68
2021/10/28 08:53:54;;;;;;;13.20;7.88;;;13.40;97.60;;;;;;5032882;28;20112;-69
2021/10/28 09:19:46;;;;;;;17.80;7.90;;;14.00;96.90;;;;;;4971583;28;20073;-69
2021/10/28 09:25:09;;;;;;;11.20;7.13;;;14.10;96.80;;;;;;5032831;28;20371;-69
2021/10/28 09:27:45;;;;;;;15.68;7.38;;;14.20;96.60;;;;;;5032663;28;20397;-69
2021/10/28 09:30:21;;;;;;;15.70;8.10;;;14.30;96.60;;;;;;5032574;28;20040;-69
2021/10/28 09:32:54;;;;;;;12.70;7.80;;;14.40;96.40;;;;;;5032304;28;20030;-69
2021/10/28 09:51:44;;;;;;;;;;;20.80;87.70;;;;;;5032591;28;20053;-70
2021/10/28 09:54:24;;;;;;;8.65;5.10;;;21.80;89.10;;;;;;5032054;28;20259;-69
2021/10/28 09:59:42;;;;;;;8.85;5.55;;;21.90;83.30;;;;;;5031813;28;20068;-70
2021/10/28 10:05:19;;;;;;;9.68;4.68;;;23.60;79.60;;;;;;5026047;28;20060;-70
2021/10/28 10:07:45;;;;;;;6.28;4.03;;;24.20;77.00;;;;;;5031796;28;20083;-70
2021/10/28 10:10:13;;;;;;;5.75;3.70;;;24.80;79.60;;;;;;5032112;28;20037;-69
2021/10/28 10:12:39;;;;;;;7.95;3.55;;;25.60;75.70;;;;;;5031472;28;20053;-70
2021/10/28 10:15:06;;;;;;;6.97;4.28;;;25.60;73.60;;;;;;5031808;28;20072;-70
2021/10/28 10:17:32;;;;;;;6.20;4.70;;;26.00;70.70;;;;;;5031519;28;20036;-70
2021/10/28 10:19:59;;;;;;;7.15;4.43;;;26.10;68.80;;;;;;5031573;28;20251;-70
2021/10/28 11:05:01;;;;;;;6.65;4.22;;;28.10;57.00;;;;;;5026245;28;20044;-70
2021/10/28 11:21:55;;;;;;;4.23;2.80;;;28.20;54.80;;;;;;5030830;28;20052;-70
2021/10/28 11:25:36;;;;;;;3.35;2.72;;;28.10;55.90;;;;;;5029523;28;20490;-69
2021/10/28 11:28:05;;;;;;;4.43;2.53;;;28.00;54.40;;;;;;5030275;28;20029;-69
2021/10/28 12:19:54;;;;;;;8.23;4.10;;;21.70;64.70;;;;;;5030189;28;20034;-69
2021/10/28 12:23:18;;;;;;;5.53;3.00;;;21.60;65.70;;;;;;5033810;28;20037;-68
2021/10/28 12:54:02;;;;;;;8.60;2.45;;;20.70;67.10;;;;;;5033392;28;20355;-68
2021/10/28 13:02:27;;;;;;;3.45;2.35;;;20.40;67.40;;;;;;5033088;28;20120;-68
2021/10/28 13:51:26;;;;;;;2.20;1.50;;;19.60;67.90;;;;;;5032354;28;20379;-68
2021/10/28 13:54:14;;;;;;;5.90;1.50;;;19.60;67.30;;;;;;5032208;28;20531;-70
2021/10/28 13:56:57;;;;;;;3.60;1.52;;;19.50;67.70;;;;;;5031849;28;20045;-68
2021/10/28 14:21:33;;;;;;;2.63;1.27;;;19.30;68.10;;;;;;5031426;28;20092;-70
2021/10/28 14:23:44;;;;;;;4.35;1.63;;;19.20;67.60;;;;;;5025757;28;20088;-70
2021/10/28 15:01:58;;;;;;;2.70;1.20;;;18.40;70.20;;;;;;5031724;28;20025;-69
2021/10/28 15:39:35;;;;;;;3.80;1.30;;;17.70;76.50;;;;;;5030559;28;20029;-69
2021/10/28 15:53:00;;;;;;;4.53;2.83;;;17.40;77.40;;;;;;5030821;28;20053;-70
2021/10/28 15:58:47;;;;;;;9.35;2.15;;;17.30;77.50;;;;;;5034215;28;20531;-69
2021/10/28 16:22:32;;;;;;;6.50;2.13;;;17.00;80.80;;;;;;5033894;28;20621;-69
2021/10/28 16:24:57;;;;;;;5.72;1.75;;;16.90;80.90;;;;;;5034723;28;20100;-69
2021/10/28 16:27:23;;;;;;;5.60;1.73;;;16.80;81.80;;;;;;5033765;28;20041;-69
2021/10/28 16:29:49;;;;;;;3.95;1.77;;;16.80;80.90;;;;;;5033881;28;20175;-69
2021/10/28 16:32:14;;;;;;;4.95;1.83;;;16.80;81.20;;;;;;5033656;28;20095;-70
2021/10/28 16:34:41;;;;;;;5.57;2.38;;;16.70;81.50;;;;;;5033703;28;20017;-69
2021/10/28 16:37:07;;;;;;;4.03;1.95;;;16.60;82.00;;;;;;5034035;28;20037;-69
2021/10/28 16:39:33;;;;;;;10.35;4.10;;;16.50;81.80;;;;;;5033654;28;20041;-69
2021/10/28 16:41:58;;;;;;;4.90;3.70;;;16.50;83.20;;;;;;5033737;28;20044;-69
2021/10/28 16:44:25;;;;;;;4.93;2.33;;;16.50;82.30;;;;;;5033128;28;20029;-69
2021/10/28 16:46:52;;;;;;;4.72;2.53;;;16.40;82.90;;;;;;5033176;28;20471;-69
2021/10/28 16:49:18;;;;;;;3.53;2.38;;;16.30;83.10;;;;;;5032747;28;20116;-68
2021/10/28 16:51:44;;;;;;;7.15;2.47;;;16.10;85.00;;;;;;5033482;28;20434;-68
2021/10/28 16:54:11;;;;;;;7.75;3.38;;;16.00;85.50;;;;;;5033079;28;20029;-67
2021/10/28 16:56:36;;;;;;;13.68;2.80;;;16.00;85.00;;;;;;5033089;28;20431;-69
2021/10/28 16:59:02;;;;;;;3.13;2.15;;;16.00;85.00;;;;;;5033022;28;20503;-67
2021/10/28 17:01:28;;;;;;;5.47;1.92;;;16.00;85.20;;;;;;5033606;28;20021;-68
2021/10/28 17:03:54;;;;;;;4.00;2.15;;;15.90;85.90;;;;;;5033165;28;20099;-68
2021/10/28 17:06:21;;;;;;;6.53;2.47;;;15.80;86.00;;;;;;5031819;28;20029;-69
2021/10/28 17:08:48;;;;;;;4.10;1.98;;;15.80;85.10;;;;;;5033000;28;20669;-69
2021/10/28 17:11:14;;;;;;;7.53;2.10;;;15.80;86.10;;;;;;5032697;28;20048;-69
2021/10/28 17:13:42;;;;;;;4.75;2.20;;;15.70;85.60;;;;;;5032527;28;20029;-69
2021/10/28 17:16:08;;;;;;;13.50;7.10;;;15.60;86.60;;;;;;5031795;28;20086;-69
2021/10/28 17:18:34;;;;;;;7.30;3.60;;;15.50;86.60;;;;;;5032584;28;20034;-71
2021/10/28 17:21:04;;;;;;;10.15;4.05;;;15.60;85.20;;;;;;5031622;28;20613;-70
2021/10/28 17:23:37;;;;;;;9.85;3.35;;;15.60;85.10;;;;;;5032430;28;20041;-71
2021/10/28 17:26:04;;;;;;;8.32;3.58;;;15.50;85.60;;;;;;5032379;28;20304;-72
2021/10/28 17:28:34;;;;;;;3.35;2.45;;;15.50;85.70;;;;;;5032649;28;20021;-72
2021/10/28 17:31:00;;;;;;;8.20;4.55;;;15.30;86.50;;;;;;5032989;28;20014;-73
2021/10/28 17:33:26;;;;;;;5.07;2.80;;;15.20;86.40;;;;;;5032365;28;20057;-73
2021/10/28 17:35:53;;;;;;;9.85;2.85;;;15.20;86.90;;;;;;5032379;28;20064;-72
2021/10/28 17:38:19;;;;;;;6.32;2.88;;;15.30;87.10;;;;;;5032615;28;20085;-73
2021/10/28 17:40:46;;;;;;;9.80;2.92;;;15.30;86.80;;;;;;5032090;28;20040;-73
2021/10/28 17:43:12;;;;;;;10.57;3.05;;;15.30;87.10;;;;;;5033135;28;20485;-73
2021/10/28 17:45:40;;;;;;;3.85;2.55;;;15.20;87.50;;;;;;5030894;28;20040;-73
2021/10/28 17:48:07;;;;;;;9.25;3.45;;;15.10;87.30;;;;;;5032324;28;20550;-73
2021/10/28 17:50:34;;;;;;;24.17;12.48;;;15.10;88.10;;;;;;5032157;28;20462;-75
2021/10/28 17:53:00;;;;;;;9.75;5.20;;;15.10;87.50;;;;;;5032115;28;20044;-71
2021/10/28 17:55:26;;;;;;;12.68;4.75;;;15.10;87.00;;;;;;5032557;28;20051;-71
2021/10/28 17:57:52;;;;;;;9.05;3.35;;;15.10;87.00;;;;;;5031929;28;20227;-72
2021/10/28 18:00:20;;;;;;;9.02;3.67;;;15.10;86.60;;;;;;5031765;28;20065;-72
2021/10/28 18:02:45;;;;;;;6.38;3.28;;;15.10;86.60;;;;;;5031863;28;20578;-72
2021/10/28 18:05:13;;;;;;;5.68;3.05;;;15.20;85.90;;;;;;5031954;28;20112;-73
2021/10/28 18:07:39;;;;;;;6.93;3.33;;;15.20;86.10;;;;;;5030730;28;20116;-72
2021/10/28 18:10:06;;;;;;;7.18;3.97;;;15.10;86.90;;;;;;5032211;28;20021;-70
2021/10/28 18:12:34;;;;;;;8.40;3.63;;;15.10;86.90;;;;;;5030592;28;20064;-71
2021/10/28 18:15:00;;;;;;;8.40;3.13;;;15.00;87.80;;;;;;5031992;28;20034;-72
2021/10/28 18:17:27;;;;;;;7.38;3.22;;;14.80;89.20;;;;;;5031524;28;20044;-72
2021/10/28 18:19:52;;;;;;;9.35;3.08;;;14.70;89.30;;;;;;5031485;28;20021;-72
2021/10/28 18:22:18;;;;;;;7.00;3.22;;;14.60;89.60;;;;;;5032015;28;20036;-73
2021/10/28 18:24:44;;;;;;;8.75;3.30;;;14.40;90.00;;;;;;5031243;28;20344;-80
2021/10/28 18:27:10;;;;;;;8.95;2.92;;;14.40;90.00;;;;;;5031673;28;20030;-73
2021/10/28 18:29:37;;;;;;;7.00;3.40;;;14.30;89.50;;;;;;5030207;28;20033;-72
2021/10/28 18:32:06;;;;;;;5.20;2.67;;;14.30;89.20;;;;;;5031100;28;20112;-72
2021/10/28 18:34:32;;;;;;;4.78;2.80;;;14.20;89.10;;;;;;5031305;28;20037;-72
2021/10/28 18:36:58;;;;;;;5.32;2.70;;;14.10;88.90;;;;;;5031836;28;20032;-72
2021/10/28 18:39:23;;;;;;;4.75;3.13;;;14.20;88.80;;;;;;5031338;28;20029;-71
2021/10/28 18:41:50;;;;;;;4.15;2.55;;;14.10;88.70;;;;;;5031205;28;20112;-71
2021/10/28 18:44:17;;;;;;;4.87;3.13;;;14.10;88.60;;;;;;5031151;28;20043;-72
2021/10/28 18:46:43;;;;;;;7.38;3.67;;;14.10;88.00;;;;;;5029958;28;20267;-72
2021/10/28 18:49:09;;;;;;;5.68;3.03;;;14.10;88.70;;;;;;5031441;28;20104;-71
2021/10/28 18:51:38;;;;;;;8.80;4.35;;;14.10;88.10;;;;;;5031025;28;20029;-73
2021/10/28 18:54:05;;;;;;;8.10;3.67;;;14.00;87.80;;;;;;5030898;28;20025;-71
2021/10/28 18:56:31;;;;;;;8.45;3.80;;;14.00;87.80;;;;;;5031066;28;20034;-71
2021/10/28 18:58:57;;;;;;;11.57;4.35;;;14.00;87.70;;;;;;5030824;28;20116;-71
2021/10/28 19:01:25;;;;;;;5.95;3.50;;;13.90;87.60;;;;;;5031378;28;20092;-71
2021/10/28 19:03:53;;;;;;;8.77;3.88;;;13.90;87.50;;;;;;5029804;28;20033;-72
2021/10/28 19:06:19;;;;;;;7.75;4.20;;;13.90;87.60;;;;;;5030860;28;20025;-71
2021/10/28 19:08:45;;;;;;;6.20;3.70;;;13.90;87.40;;;;;;5030756;28;20037;-71
2021/10/28 19:11:12;;;;;;;7.22;4.05;;;13.90;87.80;;;;;;5030471;28;20029;-72
2021/10/28 19:13:41;;;;;;;13.60;5.97;;;13.90;87.50;;;;;;5031158;28;20034;-71
2021/10/28 19:16:08;;;;;;;9.45;5.30;;;13.80;87.70;;;;;;5031446;28;20031;-71
2021/10/28 19:18:34;;;;;;;7.63;3.88;;;13.80;87.10;;;;;;5030620;28;20025;-71
2021/10/28 19:21:02;;;;;;;7.15;3.83;;;13.80;86.80;;;;;;5030684;28;20025;-71
2021/10/28 19:23:28;;;;;;;6.00;4.53;;;13.80;86.80;;;;;;5029849;28;20320;-71
2021/10/28 19:25:53;;;;;;;8.77;4.60;;;13.80;87.10;;;;;;5030347;28;20032;-71
2021/10/28 19:28:19;;;;;;;8.27;4.68;;;13.80;87.20;;;;;;5030315;28;20025;-72
2021/10/28 19:30:55;;;;;;;13.85;4.93;;;13.80;87.40;;;;;;5030456;28;20037;-71
2021/10/28 19:33:25;;;;;;;10.70;4.90;;;13.80;87.80;;;;;;5030730;28;20040;-72
2021/10/28 19:35:57;;;;;;;6.03;4.10;;;13.70;88.30;;;;;;5030478;28;20033;-72
2021/10/28 19:41:20;;;;;;;7.18;5.03;;;13.70;88.80;;;;;;5031908;28;20025;-71
2021/10/28 19:46:32;;;;;;;10.50;4.90;;;13.70;89.30;;;;;;5031695;28;20048;-71
2021/10/28 19:48:58;;;;;;;9.68;5.10;;;13.60;89.30;;;;;;5032086;28;20497;-72
2021/10/28 19:51:24;;;;;;;12.38;5.45;;;13.60;89.60;;;;;;5031505;28;20124;-72
2021/10/28 19:53:50;;;;;;;11.38;5.68;;;13.60;90.00;;;;;;5031394;28;20056;-72
2021/10/28 19:56:20;;;;;;;11.30;6.03;;;13.50;90.10;;;;;;5031476;28;20044;-72
2021/10/28 19:58:54;;;;;;;10.27;6.00;;;13.50;90.10;;;;;;5031357;28;20087;-71
2021/10/28 20:14:17;;;;;;;20.90;7.75;;;13.40;90.70;;;;;;5031495;28;20083;-71
2021/10/28 20:22:11;;;;;;;11.18;6.57;;;13.30;91.00;;;;;;5031171;28;20445;-72
2021/10/28 20:24:37;;;;;;;10.10;7.15;;;13.20;91.10;;;;;;5030228;28;20422;-71
2021/10/28 20:27:03;;;;;;;13.95;7.95;;;13.30;91.20;;;;;;5031127;28;20033;-72
2021/10/28 20:29:29;;;;;;;12.32;7.97;;;13.20;91.40;;;;;;5031092;28;20079;-72
2021/10/28 20:31:54;;;;;;;13.00;7.95;;;13.20;91.50;;;;;;5031112;28;20436;-72
2021/10/28 20:34:32;;;;;;;15.50;8.20;;;13.20;91.60;;;;;;5031469;28;20091;-71
2021/10/28 20:37:05;;;;;;;13.45;8.45;;;13.10;91.50;;;;;;5030989;28;20061;-73
2021/10/28 20:39:32;;;;;;;17.92;8.73;;;13.10;91.50;;;;;;5031853;28;20038;-72
2021/10/28 20:41:58;;;;;;;13.88;8.60;;;13.00;91.70;;;;;;5033652;28;20040;-72
2021/10/28 20:44:24;;;;;;;12.77;8.18;;;13.00;91.80;;;;;;5034761;28;20048;-72
2021/10/28 20:46:50;;;;;;;14.82;9.10;;;13.00;91.70;;;;;;5034538;28;20083;-71
2021/10/28 20:49:16;;;;;;;16.30;9.55;;;12.90;92.00;;;;;;5033828;28;20030;-71
2021/10/28 20:51:42;;;;;;;15.40;8.55;;;12.80;92.20;;;;;;5034305;28;20159;-71
2021/10/28 20:54:07;;;;;;;19.00;9.85;;;12.80;92.20;;;;;;5033375;28;20423;-71
2021/10/28 20:56:33;;;;;;;19.42;11.18;;;12.70;92.30;;;;;;5034560;28;20037;-71
2021/10/28 20:58:59;;;;;;;15.18;8.88;;;12.70;92.50;;;;;;5033236;28;20367;-71
2021/10/28 21:01:25;;;;;;;15.35;8.80;;;12.70;92.20;;;;;;5034734;28;20063;-72
2021/10/28 21:03:52;;;;;;;16.92;10.32;;;12.60;92.10;;;;;;5034448;28;20107;-71
2021/10/28 21:06:18;;;;;;;15.07;9.30;;;12.60;92.00;;;;;;5034509;28;20040;-71
2021/10/28 21:08:44;;;;;;;19.20;10.13;;;12.50;92.10;;;;;;5033825;28;20120;-72
2021/10/28 21:11:09;;;;;;;19.02;10.18;;;12.50;92.20;;;;;;5033870;28;20199;-71